createdAt,value
2022-10-17T00:00:39.172Z,17.51
2022-10-17T00:03:06.367Z,17.49
2022-10-17T00:05:33.505Z,17.55
2022-10-17T00:08:00.106Z,17.51
2022-10-17T00:10:26.895Z,17.53
2022-10-17T00:12:53.529Z,17.45
2022-10-17T00:15:21.628Z,17.42
2022-10-17T00:17:48.458Z,17.43
2022-10-17T00:20:16.224Z,17.42
2022-10-17T00:22:43.536Z,17.38
2022-10-17T00:25:10.393Z,17.39
2022-10-17T00:27:38.648Z,17.16
2022-10-17T00:30:07.919Z,17.06
2022-10-17T00:32:34.690Z,17.30
2022-10-17T00:35:01.768Z,17.44
2022-10-17T00:37:31.161Z,17.54
2022-10-17T00:39:57.766Z,17.59
2022-10-17T00:42:25.238Z,17.66
2022-10-17T00:45:22.756Z,17.59
2022-10-17T00:47:55.387Z,17.52
2022-10-17T00:50:22.279Z,17.55
2022-10-17T00:52:50.336Z,17.56
2022-10-17T00:55:22.773Z,17.61
2022-10-17T00:57:50.453Z,17.60
2022-10-17T01:00:20.085Z,17.57
2022-10-17T01:02:47.653Z,17.62
2022-10-17T01:05:15.477Z,17.58
2022-10-17T01:07:43.982Z,17.57
2022-10-17T01:10:12.875Z,17.46
2022-10-17T01:13:13.717Z,17.41
2022-10-17T01:16:00.669Z,17.53
2022-10-17T01:19:00.201Z,17.49
2022-10-17T01:21:33.327Z,17.51
2022-10-17T01:24:24.882Z,17.56
2022-10-17T01:27:29.098Z,17.55
2022-10-17T01:30:14.260Z,17.57
2022-10-17T01:32:46.841Z,17.58
2022-10-17T01:35:25.722Z,17.58
2022-10-17T01:38:14.260Z,17.54
2022-10-17T01:40:44.409Z,17.49
2022-10-17T01:43:25.857Z,17.54
2022-10-17T01:46:02.959Z,17.57
2022-10-17T01:48:38.443Z,17.59
2022-10-17T01:51:13.256Z,17.52
2022-10-17T01:53:49.937Z,17.60
2022-10-17T01:56:19.650Z,17.60
2022-10-17T01:58:55.378Z,17.57
2022-10-17T02:01:23.609Z,17.62
2022-10-17T02:03:51.439Z,17.63
2022-10-17T02:06:18.049Z,17.57
2022-10-17T02:08:47.685Z,17.59
2022-10-17T02:11:20.964Z,17.64
2022-10-17T02:17:11.659Z,17.62
2022-10-17T02:19:50.314Z,17.71
2022-10-17T02:22:51.866Z,17.72
2022-10-17T02:25:47.803Z,17.61
2022-10-17T02:28:23.719Z,17.68
2022-10-17T02:30:58.251Z,17.66
2022-10-17T02:33:39.284Z,17.66
2022-10-17T02:36:15.094Z,17.62
2022-10-17T02:38:43.460Z,17.66
2022-10-17T02:41:16.194Z,17.59
2022-10-17T02:43:45.410Z,17.57
2022-10-17T02:46:20.837Z,17.61
2022-10-17T02:48:55.274Z,17.50
2022-10-17T02:51:32.748Z,17.44
2022-10-17T02:54:22.800Z,17.51
2022-10-17T02:56:59.020Z,17.52
2022-10-17T02:59:28.290Z,17.49
2022-10-17T03:01:55.293Z,17.52
2022-10-17T03:04:21.923Z,17.53
2022-10-17T03:06:49.448Z,17.49
2022-10-17T03:09:16.404Z,17.50
2022-10-17T03:11:43.051Z,17.50
2022-10-17T03:14:09.901Z,17.53
2022-10-17T03:16:36.562Z,17.54
2022-10-17T03:19:04.758Z,17.48
2022-10-17T03:21:32.346Z,17.48
2022-10-17T03:23:59.292Z,17.48
2022-10-17T03:26:26.371Z,17.54
2022-10-17T03:28:54.527Z,17.65
2022-10-17T03:31:22.912Z,17.69
2022-10-17T03:33:51.115Z,17.77
2022-10-17T03:36:19.307Z,17.73
2022-10-17T03:38:47.307Z,17.60
2022-10-17T03:41:14.745Z,17.55
2022-10-17T03:43:42.138Z,17.51
2022-10-17T03:46:09.106Z,17.54
2022-10-17T03:48:36.947Z,17.51
2022-10-17T03:51:09.175Z,17.59
2022-10-17T03:53:42.159Z,17.70
2022-10-17T03:56:11.360Z,17.77
2022-10-17T03:58:38.198Z,17.83
2022-10-17T04:01:06.462Z,17.88
2022-10-17T04:03:34.002Z,17.89
2022-10-17T04:06:01.571Z,17.81
2022-10-17T04:08:29.710Z,17.90
2022-10-17T04:11:08.314Z,17.94
2022-10-17T04:13:35.612Z,17.91
2022-10-17T04:16:07.867Z,17.89
2022-10-17T04:18:38.884Z,17.85
2022-10-17T04:21:07.091Z,17.75
2022-10-17T04:23:34.465Z,17.67
2022-10-17T04:26:10.272Z,17.66
2022-10-17T04:28:37.171Z,17.73
2022-10-17T04:31:09.767Z,17.78
2022-10-17T04:33:55.343Z,17.79
2022-10-17T04:36:23.293Z,17.85
2022-10-17T04:38:50.320Z,17.69
2022-10-17T04:41:18.513Z,17.77
2022-10-17T04:43:50.091Z,17.66
2022-10-17T04:46:19.145Z,17.76
2022-10-17T04:48:46.273Z,17.90
2022-10-17T04:51:15.510Z,17.95
2022-10-17T04:54:08.139Z,17.95
2022-10-17T04:56:35.750Z,17.91
2022-10-17T04:59:02.355Z,17.95
2022-10-17T05:01:29.144Z,18.07
2022-10-17T05:03:56.359Z,18.04
2022-10-17T05:06:25.821Z,18.02
2022-10-17T05:09:10.996Z,18.06
2022-10-17T05:11:37.682Z,18.05
2022-10-17T05:14:04.543Z,17.97
2022-10-17T05:16:32.546Z,17.89
2022-10-17T05:18:59.766Z,17.88
2022-10-17T05:24:09.258Z,17.93
2022-10-17T05:26:35.932Z,17.96
2022-10-17T05:29:03.865Z,18.00
2022-10-17T05:31:32.836Z,18.09
2022-10-17T05:34:04.034Z,18.12
2022-10-17T05:36:33.094Z,18.06
2022-10-17T05:39:01.285Z,18.00
2022-10-17T05:41:28.695Z,17.96
2022-10-17T05:43:55.311Z,17.96
2022-10-17T05:46:34.313Z,17.95
2022-10-17T05:49:01.061Z,17.95
2022-10-17T05:51:27.735Z,17.97
2022-10-17T05:53:56.229Z,17.92
2022-10-17T05:56:26.643Z,17.94
2022-10-17T05:58:58.626Z,18.03
2022-10-17T06:01:37.796Z,17.96
2022-10-17T06:04:04.723Z,17.92
2022-10-17T06:06:31.585Z,17.92
2022-10-17T06:08:58.266Z,17.91
2022-10-17T06:11:31.137Z,17.92
2022-10-17T06:13:59.188Z,17.94
2022-10-17T06:16:28.100Z,17.98
2022-10-17T06:18:54.812Z,18.01
2022-10-17T06:21:24.392Z,17.95
2022-10-17T06:23:53.593Z,18.00
2022-10-17T06:26:30.867Z,18.08
2022-10-17T06:28:58.056Z,18.09
2022-10-17T06:31:27.158Z,18.22
2022-10-17T06:33:53.718Z,18.21
2022-10-17T06:36:20.566Z,18.15
2022-10-17T06:38:48.362Z,18.24
2022-10-17T06:41:23.776Z,18.28
2022-10-17T06:43:52.719Z,18.19
2022-10-17T06:46:45.537Z,18.26
2022-10-17T06:49:15.551Z,18.35
2022-10-17T06:51:50.959Z,18.40
2022-10-17T06:54:22.213Z,18.38
2022-10-17T06:57:07.711Z,18.44
2022-10-17T07:00:13.869Z,18.46
2022-10-17T07:02:45.844Z,18.43
2022-10-17T07:05:12.533Z,18.41
2022-10-17T07:07:43.049Z,18.36
2022-10-17T07:10:11.819Z,18.44
2022-10-17T07:12:39.999Z,18.48
2022-10-17T07:15:07.080Z,18.55
2022-10-17T07:17:34.384Z,18.57
2022-10-17T07:20:01.720Z,18.47
2022-10-17T07:22:31.041Z,18.59
2022-10-17T07:24:58.487Z,18.54
2022-10-17T07:27:29.763Z,18.47
2022-10-17T07:29:56.524Z,18.58
2022-10-17T07:32:32.487Z,18.69
2022-10-17T07:34:59.373Z,18.75
2022-10-17T07:37:25.959Z,18.96
2022-10-17T07:39:56.535Z,18.91
2022-10-17T07:42:23.794Z,18.81
2022-10-17T07:44:51.056Z,18.81
2022-10-17T07:47:17.712Z,18.88
2022-10-17T07:49:45.934Z,19.12
2022-10-17T07:52:16.584Z,19.10
2022-10-17T07:54:43.967Z,19.17
2022-10-17T07:57:10.550Z,19.34
2022-10-17T07:59:38.336Z,19.36
2022-10-17T08:02:05.391Z,19.22
2022-10-17T08:04:32.097Z,19.19
2022-10-17T08:07:11.329Z,19.17
2022-10-17T08:09:46.297Z,19.15
2022-10-17T08:12:14.848Z,19.18
2022-10-17T08:14:42.333Z,19.16
2022-10-17T08:17:09.525Z,19.36
2022-10-17T08:19:40.402Z,19.45
2022-10-17T08:22:08.049Z,19.48
2022-10-17T08:24:34.883Z,19.49
2022-10-17T08:27:01.635Z,19.59
2022-10-17T08:29:28.355Z,19.73
2022-10-17T08:32:00.998Z,19.78
2022-10-17T08:34:29.327Z,19.85
2022-10-17T08:36:55.956Z,19.97
2022-10-17T08:39:22.622Z,20.04
2022-10-17T08:42:05.733Z,20.09
2022-10-17T08:44:49.804Z,20.01
2022-10-17T08:47:23.987Z,19.95
2022-10-17T08:50:00.792Z,19.92
2022-10-17T08:52:37.908Z,19.95
2022-10-17T08:55:15.350Z,19.99
2022-10-17T08:57:43.034Z,19.95
2022-10-17T09:00:20.035Z,19.92
2022-10-17T09:03:11.450Z,19.98
2022-10-17T09:06:18.215Z,20.02
2022-10-17T09:08:50.901Z,19.98
2022-10-17T09:11:39.522Z,20.12
2022-10-17T09:14:24.667Z,20.24
2022-10-17T09:17:18.975Z,20.39
2022-10-17T09:20:00.167Z,20.18
2022-10-17T09:22:34.372Z,20.22
2022-10-17T09:25:06.800Z,20.25
2022-10-17T09:27:42.265Z,20.23
2022-10-17T09:30:45.123Z,20.26
2022-10-17T09:33:42.400Z,20.36
2022-10-17T09:36:19.384Z,20.48
2022-10-17T09:38:52.398Z,20.51
2022-10-17T09:41:46.449Z,20.41
2022-10-17T09:44:29.496Z,20.32
2022-10-17T09:47:06.259Z,20.44
2022-10-17T09:49:37.753Z,20.46
2022-10-17T09:52:11.597Z,20.59
2022-10-17T09:54:48.047Z,20.58
2022-10-17T09:57:16.380Z,20.40
2022-10-17T10:00:05.790Z,20.43
2022-10-17T10:02:40.864Z,20.43
2022-10-17T10:05:19.881Z,20.39
2022-10-17T10:08:21.508Z,20.28
2022-10-17T10:10:58.474Z,20.27
2022-10-17T10:13:26.721Z,20.28
2022-10-17T10:15:53.617Z,20.17
2022-10-17T10:18:26.281Z,20.24
2022-10-17T10:21:14.199Z,20.24
2022-10-17T10:23:43.791Z,20.34
2022-10-17T10:26:24.386Z,20.27
2022-10-17T10:28:57.485Z,20.22
2022-10-17T10:31:33.894Z,20.20
2022-10-17T10:34:04.873Z,20.19
2022-10-17T10:36:52.082Z,20.05
2022-10-17T10:39:42.821Z,20.05
2022-10-17T10:42:21.554Z,20.11
2022-10-17T10:44:50.200Z,20.16
2022-10-17T10:47:28.532Z,20.27
2022-10-17T10:50:17.538Z,20.29
2022-10-17T10:53:12.161Z,20.31
2022-10-17T10:56:00.733Z,20.54
2022-10-17T10:58:30.377Z,20.32
2022-10-17T11:01:00.757Z,20.45
2022-10-17T11:03:35.895Z,20.46
2022-10-17T11:06:12.368Z,20.35
2022-10-17T11:08:45.782Z,20.43
2022-10-17T11:11:25.533Z,20.33
2022-10-17T11:14:19.551Z,20.30
2022-10-17T11:17:10.369Z,20.28
2022-10-17T11:19:44.585Z,20.36
2022-10-17T11:22:26.583Z,20.34
2022-10-17T11:25:25.447Z,20.23
2022-10-17T11:27:52.032Z,20.18
2022-10-17T11:30:18.795Z,20.18
2022-10-17T11:32:59.235Z,20.20
2022-10-17T11:35:55.324Z,20.26
2022-10-17T11:38:41.825Z,20.26
2022-10-17T11:41:15.264Z,20.41
2022-10-17T11:44:07.541Z,20.35
2022-10-17T11:46:37.205Z,20.46
2022-10-17T11:49:20.676Z,20.60
2022-10-17T11:52:07.295Z,20.65
2022-10-17T11:54:50.747Z,20.63
2022-10-17T11:57:48.999Z,20.59
2022-10-17T12:00:41.738Z,20.47
2022-10-17T12:03:31.241Z,20.68
2022-10-17T12:06:03.474Z,20.72
2022-10-17T12:08:46.989Z,20.73
2022-10-17T12:11:34.664Z,20.71
2022-10-17T12:14:05.755Z,20.69
2022-10-17T12:16:33.798Z,20.66
2022-10-17T12:19:00.338Z,20.66
2022-10-17T12:21:31.317Z,20.59
2022-10-17T12:23:58.869Z,20.59
2022-10-17T12:26:28.462Z,20.64
2022-10-17T12:28:57.195Z,20.57
2022-10-17T12:31:29.624Z,20.56
2022-10-17T12:34:02.891Z,20.73
2022-10-17T12:36:29.523Z,20.66
2022-10-17T12:39:01.985Z,20.60
2022-10-17T12:41:41.269Z,20.45
2022-10-17T12:44:13.893Z,20.35
2022-10-17T12:46:44.132Z,20.27
2022-10-17T12:49:37.071Z,20.33
2022-10-17T12:52:55.831Z,20.34
2022-10-17T12:55:25.655Z,20.25
2022-10-17T12:58:12.727Z,20.24
2022-10-17T13:01:23.816Z,20.15
2022-10-17T13:03:46.496Z,20.05
2022-10-17T13:06:22.078Z,20.11
2022-10-17T13:08:56.197Z,20.25
2022-10-17T13:11:28.934Z,20.07
2022-10-17T13:13:58.877Z,20.15
2022-10-17T13:16:34.551Z,20.09
2022-10-17T13:19:04.012Z,20.10
2022-10-17T13:21:31.626Z,20.05
2022-10-17T13:23:58.235Z,20.12
2022-10-17T13:26:28.411Z,20.11
2022-10-17T13:29:05.609Z,20.19
2022-10-17T13:31:35.597Z,20.20
2022-10-17T13:34:14.912Z,20.24
2022-10-17T13:36:47.957Z,20.24
2022-10-17T13:39:23.053Z,20.24
2022-10-17T13:41:59.636Z,20.17
2022-10-17T13:44:31.983Z,20.27
2022-10-17T13:46:58.753Z,20.33
2022-10-17T13:49:36.893Z,20.24
2022-10-17T13:52:06.249Z,20.17
2022-10-17T13:54:40.287Z,20.07
2022-10-17T13:57:21.424Z,20.01
2022-10-17T14:00:12.437Z,20.04
2022-10-17T14:02:40.984Z,20.04
2022-10-17T14:05:23.124Z,20.19
2022-10-17T14:10:42.375Z,19.97
2022-10-17T14:13:23.835Z,20.01
2022-10-17T14:15:52.689Z,19.90
2022-10-17T14:18:36.120Z,19.89
2022-10-17T14:23:53.325Z,20.17
2022-10-17T14:26:23.804Z,20.13
2022-10-17T14:29:21.736Z,20.04
2022-10-17T14:31:50.653Z,19.98
2022-10-17T14:34:23.860Z,20.09
2022-10-17T14:36:53.081Z,20.21
2022-10-17T14:39:23.447Z,20.20
2022-10-17T14:41:51.802Z,20.11
2022-10-17T14:44:31.472Z,19.92
2022-10-17T14:47:05.954Z,19.99
2022-10-17T14:49:39.845Z,20.06
2022-10-17T14:52:15.238Z,20.04
2022-10-17T14:54:49.076Z,20.02
2022-10-17T14:57:26.936Z,20.08
2022-10-17T14:59:56.170Z,20.06
2022-10-17T15:02:27.841Z,20.15
2022-10-17T15:04:54.893Z,19.95
2022-10-17T15:07:22.213Z,19.88
2022-10-17T15:09:50.765Z,19.97
2022-10-17T15:12:19.865Z,19.88
2022-10-17T15:14:48.414Z,19.89
2022-10-17T15:17:18.864Z,19.98
2022-10-17T15:19:45.533Z,19.88
2022-10-17T15:22:12.292Z,19.88
2022-10-17T15:24:39.202Z,19.95
2022-10-17T15:27:17.560Z,20.06
2022-10-17T15:29:45.068Z,20.16
2022-10-17T15:32:12.227Z,20.06
2022-10-17T15:34:39.526Z,19.93
2022-10-17T15:37:10.811Z,19.82
2022-10-17T15:39:37.516Z,19.65
2022-10-17T15:42:09.085Z,19.75
2022-10-17T15:44:36.571Z,19.69
2022-10-17T15:47:03.549Z,19.60
2022-10-17T15:49:30.197Z,19.61
2022-10-17T15:51:56.882Z,19.69
2022-10-17T15:54:23.479Z,19.64
2022-10-17T15:56:54.580Z,19.73
2022-10-17T15:59:29.827Z,19.90
2022-10-17T16:01:56.464Z,19.81
2022-10-17T16:04:26.649Z,19.85
2022-10-17T16:06:53.363Z,19.92
2022-10-17T16:09:20.124Z,19.93
2022-10-17T16:11:46.886Z,19.78
2022-10-17T16:14:15.836Z,19.67
2022-10-17T16:16:42.948Z,19.64
2022-10-17T16:19:09.839Z,19.38
2022-10-17T16:21:39.255Z,19.33
2022-10-17T16:24:07.045Z,19.14
2022-10-17T16:26:33.631Z,19.13
2022-10-17T16:29:04.691Z,19.12
2022-10-17T16:31:34.854Z,19.14
2022-10-17T16:34:03.836Z,19.28
2022-10-17T16:36:30.475Z,19.22
2022-10-17T16:38:57.106Z,19.11
2022-10-17T16:41:36.564Z,19.09
2022-10-17T16:44:06.102Z,19.14
2022-10-17T16:46:34.032Z,19.18
2022-10-17T16:49:00.665Z,19.14
2022-10-17T16:51:29.058Z,19.19
2022-10-17T16:53:56.975Z,19.16
2022-10-17T16:56:24.746Z,19.21
2022-10-17T16:58:51.822Z,19.27
2022-10-17T17:01:23.167Z,19.29
2022-10-17T17:03:51.397Z,19.35
2022-10-17T17:06:24.214Z,19.53
2022-10-17T17:08:51.409Z,19.48
2022-10-17T17:11:20.445Z,19.36
2022-10-17T17:13:47.986Z,19.26
2022-10-17T17:16:21.514Z,19.18
2022-10-17T17:18:53.986Z,19.09
2022-10-17T17:21:20.660Z,18.98
2022-10-17T17:23:47.397Z,18.93
2022-10-17T17:26:17.635Z,19.09
2022-10-17T17:28:45.653Z,18.94
2022-10-17T17:31:15.511Z,18.87
2022-10-17T17:33:42.836Z,18.98
2022-10-17T17:36:13.958Z,19.06
2022-10-17T17:38:41.274Z,19.12
2022-10-17T17:41:07.871Z,19.13
2022-10-17T17:43:35.738Z,19.16
2022-10-17T17:46:02.490Z,19.16
2022-10-17T17:48:29.669Z,19.18
2022-10-17T17:50:56.666Z,19.19
2022-10-17T17:53:23.976Z,19.16
2022-10-17T17:56:01.744Z,19.11
2022-10-17T17:58:28.537Z,19.02
2022-10-17T18:00:55.525Z,19.01
2022-10-17T18:03:22.285Z,19.00
2022-10-17T18:05:48.944Z,19.01
2022-10-17T18:08:15.849Z,19.07
2022-10-17T18:10:47.828Z,19.07
2022-10-17T18:13:14.698Z,19.13
2022-10-17T18:15:42.657Z,19.14
2022-10-17T18:18:09.872Z,19.13
2022-10-17T18:20:43.420Z,19.22
2022-10-17T18:23:11.214Z,19.18
2022-10-17T18:25:37.940Z,19.23
2022-10-17T18:28:05.079Z,19.32
2022-10-17T18:30:34.411Z,19.25
2022-10-17T18:33:01.437Z,19.43
2022-10-17T18:35:28.087Z,19.33
2022-10-17T18:37:56.903Z,19.30
2022-10-17T18:40:23.605Z,19.30
2022-10-17T18:42:50.374Z,19.26
2022-10-17T18:45:17.404Z,19.24
2022-10-17T18:47:47.229Z,19.25
2022-10-17T18:50:14.689Z,19.25
2022-10-17T18:52:41.408Z,19.26
2022-10-17T18:55:08.562Z,19.21
2022-10-17T18:57:35.274Z,19.12
2022-10-17T19:00:01.943Z,19.08
2022-10-17T19:02:28.510Z,19.07
2022-10-17T19:04:55.077Z,19.17
2022-10-17T19:07:21.735Z,19.05
2022-10-17T19:09:48.561Z,19.06
2022-10-17T19:12:15.603Z,19.12
2022-10-17T19:14:42.211Z,19.11
2022-10-17T19:17:08.752Z,19.06
2022-10-17T19:19:36.021Z,19.13
2022-10-17T19:22:03.430Z,19.23
2022-10-17T19:24:30.469Z,19.31
2022-10-17T19:27:02.448Z,19.32
2022-10-17T19:29:31.689Z,19.16
2022-10-17T19:31:58.932Z,19.11
2022-10-17T19:34:27.607Z,19.06
2022-10-17T19:36:55.685Z,19.10
2022-10-17T19:39:23.812Z,19.09
2022-10-17T19:41:50.455Z,19.02
2022-10-17T19:44:17.482Z,18.96
2022-10-17T19:46:46.550Z,19.00
2022-10-17T19:49:13.607Z,18.86
2022-10-17T19:51:40.665Z,18.83
2022-10-17T19:54:07.850Z,18.89
2022-10-17T19:56:38.111Z,18.94
2022-10-17T19:59:06.253Z,18.85
2022-10-17T20:01:38.555Z,18.93
2022-10-17T20:04:06.158Z,19.03
2022-10-17T20:06:33.612Z,19.06
2022-10-17T20:09:00.305Z,19.06
2022-10-17T20:11:28.597Z,19.10
2022-10-17T20:13:56.501Z,19.03
2022-10-17T20:16:27.050Z,18.96
2022-10-17T20:18:55.814Z,19.03
2022-10-17T20:21:27.364Z,19.01
2022-10-17T20:23:54.769Z,19.08
2022-10-17T20:26:33.668Z,19.11
2022-10-17T20:29:08.724Z,19.12
2022-10-17T20:31:35.787Z,19.07
2022-10-17T20:34:03.347Z,19.11
2022-10-17T20:36:30.132Z,19.10
2022-10-17T20:38:58.021Z,19.07
2022-10-17T20:41:26.510Z,19.11
2022-10-17T20:43:55.289Z,19.11
2022-10-17T20:46:36.236Z,19.12
2022-10-17T20:49:05.619Z,19.12
2022-10-17T20:51:32.523Z,19.10
2022-10-17T20:53:59.437Z,19.09
2022-10-17T20:56:29.207Z,19.09
2022-10-17T20:58:58.296Z,19.04
2022-10-17T21:01:26.029Z,18.91
2022-10-17T21:03:53.025Z,18.94
2022-10-17T21:06:20.485Z,18.92
2022-10-17T21:08:48.599Z,18.86
2022-10-17T21:11:17.636Z,18.80
2022-10-17T21:13:45.322Z,18.85
2022-10-17T21:16:14.509Z,18.93
2022-10-17T21:18:42.457Z,18.93
2022-10-17T21:21:11.839Z,18.98
2022-10-17T21:23:39.605Z,18.85
2022-10-17T21:26:08.792Z,18.86
2022-10-17T21:28:37.191Z,18.86
2022-10-17T21:31:24.891Z,18.93
2022-10-17T21:33:55.337Z,18.90
2022-10-17T21:36:23.654Z,18.88
2022-10-17T21:38:52.364Z,18.92
2022-10-17T21:41:20.749Z,18.88
2022-10-17T21:43:48.082Z,18.87
2022-10-17T21:46:17.434Z,18.88
2022-10-17T21:48:45.679Z,18.90
2022-10-17T21:51:14.936Z,18.79
2022-10-17T21:53:42.123Z,18.71
2022-10-17T21:56:15.549Z,18.70
2022-10-17T21:58:42.729Z,18.78
2022-10-17T22:01:19.426Z,18.76
2022-10-17T22:03:49.161Z,18.67
2022-10-17T22:06:38.577Z,18.66
2022-10-17T22:09:08.299Z,18.67
2022-10-17T22:11:35.526Z,18.62
2022-10-17T22:14:04.654Z,18.52
2022-10-17T22:16:31.864Z,18.53
2022-10-17T22:19:03.293Z,18.52
2022-10-17T22:21:33.513Z,18.52
2022-10-17T22:24:02.993Z,18.56
2022-10-17T22:26:31.307Z,18.58
2022-10-17T22:28:58.171Z,18.44
2022-10-17T22:31:25.188Z,18.48
2022-10-17T22:33:51.937Z,18.44
2022-10-17T22:36:18.911Z,18.38
2022-10-17T22:38:45.982Z,18.43
2022-10-17T22:41:12.567Z,18.34
2022-10-17T22:43:40.126Z,18.33
2022-10-17T22:46:07.894Z,18.34
2022-10-17T22:48:36.830Z,18.37
2022-10-17T22:51:03.445Z,18.29
2022-10-17T22:53:30.125Z,18.35
2022-10-17T22:56:03.234Z,18.39
2022-10-17T22:58:31.751Z,18.35
2022-10-17T23:00:58.731Z,18.38
2022-10-17T23:03:27.553Z,18.35
2022-10-17T23:05:54.997Z,18.32
2022-10-17T23:08:21.679Z,18.29
2022-10-17T23:10:48.922Z,18.29
2022-10-17T23:13:16.269Z,18.27
2022-10-17T23:15:43.290Z,18.32
2022-10-17T23:18:10.296Z,18.36
2022-10-17T23:20:37.977Z,18.28
2022-10-17T23:23:05.082Z,18.29
2022-10-17T23:25:33.686Z,18.18
2022-10-17T23:28:01.001Z,18.12
2022-10-17T23:30:28.776Z,18.12
2022-10-17T23:32:55.337Z,18.18
2022-10-17T23:35:22.130Z,18.13
2022-10-17T23:37:48.779Z,18.13
2022-10-17T23:40:15.969Z,18.00
2022-10-17T23:42:42.662Z,18.05
2022-10-17T23:45:09.744Z,18.05
2022-10-17T23:47:37.256Z,18.13
2022-10-17T23:50:05.114Z,18.19
2022-10-17T23:52:32.033Z,18.23
2022-10-17T23:54:58.764Z,18.35
2022-10-17T23:57:25.393Z,18.27
2022-10-17T23:59:52.394Z,18.15
